.
WxDataArchive / Data Records for 2013-11-27
2013-11-26 November 2013 2013-11-28

Data Records for Wednesday, 27 November 2013

Time	Temp	Chill	HIndex	Humid	Dewpt	 Wind 	HiWind	WindDir	Rain 	Barom 
-----	----	-----	------	-----	-----	------	------	-------	-----	----- 
00:00	27.9	27.9	27.9	73	20.4	1	5	0	0.00	29.996 
00:05	27.8	27.8	27.8	73	20.3	1	4	315	0.00	29.996 
00:10	27.8	27.8	27.8	72	20.0	1	3	248	0.00	29.996 
00:15	27.6	27.6	27.6	69	18.8	2	9	315	0.00	29.996 
00:20	27.6	27.6	27.6	68	18.4	1	3	315	0.00	29.996 
00:25	27.5	27.5	27.5	67	18.0	1	4	315	0.00	29.996 
00:30	27.5	27.5	27.5	67	18.0	1	6	270	0.00	29.993 
00:35	27.2	27.2	27.2	67	17.7	0	2	270	0.00	29.993 
00:40	27.0	27.0	27.0	67	17.5	1	4	0	0.00	29.993 
00:45	26.9	26.9	26.9	67	17.4	0	2	338	0.00	29.985 
00:50	26.7	26.7	26.7	68	17.6	0	2	338	0.00	29.985 
00:55	26.6	26.6	26.6	69	17.8	0	3	315	0.00	29.985 
01:00	26.4	26.4	26.4	69	17.6	0	2	315	0.00	29.981 
01:05	26.3	26.3	26.3	70	17.9	0	2	315	0.00	29.981 
01:10	26.1	26.1	26.1	69	17.3	0	2	315	0.00	29.981 
01:15	26.0	26.0	26.0	69	17.2	0	2	315	0.00	29.978 
01:20	26.0	26.0	26.0	69	17.2	0	3	315	0.00	29.978 
01:25	25.8	25.8	25.8	68	16.7	1	3	315	0.00	29.978 
01:30	25.8	25.8	25.8	68	16.7	0	1	315	0.00	29.977 
01:35	25.7	25.7	25.7	68	16.6	0	3	315	0.00	29.977 
01:40	25.6	25.6	25.6	69	16.9	0	2	315	0.00	29.977 
01:45	25.4	25.4	25.4	70	17.0	0	1	315	0.00	29.973 
01:50	25.3	25.3	25.3	71	17.2	0	1	315	0.00	29.973 
01:55	25.1	25.1	25.1	72	17.4	0	2	315	0.00	29.973 
02:00	25.0	25.0	25.0	72	17.3	0	1	315	0.00	29.977 
02:05	24.8	24.8	24.8	73	17.4	0	1	315	0.00	29.977 
02:10	24.8	24.8	24.8	73	17.4	0	1	315	0.00	29.977 
02:15	24.7	24.7	24.7	73	17.3	0	2	315	0.00	29.976 
02:20	24.5	24.5	24.5	73	17.1	0	1	315	0.00	29.976 
02:25	24.4	24.4	24.4	73	17.0	0	2	315	0.00	29.976 
02:30	24.4	24.4	24.4	73	17.0	1	3	315	0.00	29.982 
02:35	24.4	24.4	24.4	72	16.7	0	2	315	0.00	29.982 
02:40	24.4	24.4	24.4	71	16.4	0	4	315	0.00	29.982 
02:45	24.4	24.4	24.4	70	16.0	1	4	315	0.00	29.983 
02:50	24.4	24.4	24.4	70	16.0	1	3	315	0.00	29.983 
02:55	24.4	24.4	24.4	69	15.7	1	4	315	0.00	29.983 
03:00	24.4	24.4	24.4	69	15.7	1	4	315	0.00	29.984 
03:05	24.2	24.2	24.2	68	15.2	1	4	315	0.00	29.984 
03:10	24.2	24.2	24.2	68	15.2	1	4	270	0.00	29.984 
03:15	24.2	24.2	24.2	68	15.2	1	4	270	0.00	29.990 
03:20	24.1	24.1	24.1	67	14.8	2	7	270	0.00	29.990 
03:25	24.1	24.1	24.1	67	14.8	2	5	338	0.00	29.990 
03:30	24.2	24.2	24.2	67	14.8	2	5	315	0.00	29.987 
03:35	24.1	24.1	24.1	67	14.8	1	6	315	0.00	29.987 
03:40	24.1	24.1	24.1	67	14.8	2	9	315	0.00	29.987 
03:45	24.1	24.1	24.1	67	14.8	2	7	315	0.00	29.992 
03:50	24.1	24.1	24.1	68	15.1	3	7	338	0.00	29.992 
03:55	24.2	24.2	24.2	68	15.2	3	9	338	0.00	29.992 
04:00	24.1	24.1	24.1	69	15.4	2	6	315	0.00	29.992 
04:05	24.1	24.1	24.1	69	15.4	3	7	292	0.00	29.992 
04:10	24.1	24.1	24.1	69	15.4	1	5	292	0.00	29.992 
04:15	24.1	24.1	24.1	69	15.4	1	4	315	0.00	29.994 
04:20	23.9	23.9	23.9	70	15.6	2	6	292	0.00	29.994 
04:25	23.9	23.9	23.9	70	15.6	2	4	315	0.00	29.994 
04:30	23.9	23.9	23.9	70	15.6	2	5	292	0.00	29.996 
04:35	23.9	23.9	23.9	70	15.6	1	4	292	0.00	29.996 
04:40	23.9	23.9	23.9	69	15.2	1	4	338	0.00	29.996 
04:45	24.1	24.1	24.1	70	15.8	2	6	338	0.00	29.998 
04:50	24.2	24.2	24.2	69	15.5	2	7	270	0.00	29.998 
04:55	24.4	24.4	24.4	69	15.7	2	5	338	0.00	29.998 
05:00	24.5	24.5	24.5	69	15.8	3	7	315	0.00	30.008 
05:05	24.7	24.7	24.7	69	16.0	2	6	338	0.00	30.008 
05:10	24.7	24.7	24.7	69	16.0	2	4	315	0.00	30.008 
05:15	24.7	24.7	24.7	68	15.7	2	6	338	0.00	30.013 
05:20	24.7	24.7	24.7	68	15.7	2	5	338	0.00	30.013 
05:25	24.5	24.5	24.5	69	15.8	2	6	270	0.00	30.013 
05:30	24.5	24.5	24.5	68	15.5	3	7	292	0.00	30.020 
05:35	24.5	24.5	24.5	68	15.5	2	12	338	0.00	30.020 
05:40	24.4	24.4	24.4	68	15.4	1	4	0	0.00	30.020 
05:45	24.4	24.4	24.4	68	15.4	2	9	270	0.00	30.028 
05:50	24.2	24.2	24.2	68	15.2	2	6	292	0.00	30.028 
05:55	24.2	24.2	24.2	68	15.2	2	5	292	0.00	30.028 
06:00	23.9	23.9	23.9	67	14.6	2	6	0	0.00	30.031 
06:05	23.8	23.8	23.8	68	14.8	1	5	270	0.00	30.031 
06:10	23.5	23.5	23.5	69	14.9	2	4	338	0.00	30.031 
06:15	23.3	23.3	23.3	69	14.7	0	2	292	0.00	30.034 
06:20	23.2	23.2	23.2	69	14.6	1	4	315	0.00	30.034 
06:25	23.2	23.2	23.2	70	14.9	1	3	292	0.00	30.034 
06:30	23.2	23.2	23.2	70	14.9	0	3	338	0.00	30.041 
06:35	23.2	23.2	23.2	70	14.9	0	3	338	0.00	30.041 
06:40	23.3	23.3	23.3	70	15.0	1	4	338	0.00	30.041 
06:45	23.5	23.5	23.5	70	15.2	1	4	0	0.00	30.047 
06:50	23.5	23.5	23.5	70	15.2	0	2	0	0.00	30.047 
06:55	23.5	23.5	23.5	70	15.2	0	2	338	0.00	30.047 
07:00	23.6	23.6	23.6	70	15.3	0	2	338	0.00	30.048 
07:05	23.6	23.6	23.6	70	15.3	0	3	338	0.00	30.048 
07:10	23.6	23.6	23.6	70	15.3	0	2	315	0.00	30.048 
07:15	23.6	23.6	23.6	70	15.3	0	4	315	0.00	30.055 
07:20	23.6	23.6	23.6	69	14.9	1	5	338	0.00	30.055 
07:25	23.6	23.6	23.6	69	14.9	1	3	338	0.00	30.055 
07:30	23.6	23.6	23.6	68	14.6	0	3	338	0.00	30.062 
07:35	23.6	23.6	23.6	68	14.6	1	4	338	0.00	30.062 
07:40	23.6	23.6	23.6	66	13.9	1	4	292	0.00	30.062 
07:45	23.6	23.6	23.6	65	13.6	1	7	292	0.00	30.066 
07:50	23.6	23.6	23.6	64	13.2	1	4	338	0.00	30.066 
07:55	23.5	23.5	23.5	62	12.4	2	6	315	0.00	30.066 
08:00	23.5	23.5	23.5	62	12.4	1	5	315	0.00	30.076 
08:05	23.5	23.5	23.5	62	12.4	1	4	315	0.00	30.076 
08:10	23.5	23.5	23.5	62	12.4	1	6	292	0.00	30.076 
08:15	23.5	23.5	23.5	63	12.8	0	1	292	0.00	30.080 
08:20	23.5	23.5	23.5	63	12.8	1	5	292	0.00	30.080 
08:25	23.3	23.3	23.3	62	12.2	1	3	338	0.00	30.080 
08:30	23.3	23.3	23.3	61	11.9	2	5	338	0.00	30.081 
08:35	23.3	23.3	23.3	62	12.2	0	2	315	0.00	30.081 
08:40	23.3	23.3	23.3	62	12.2	1	5	292	0.00	30.081 
08:45	23.5	23.5	23.5	62	12.4	0	3	315	0.00	30.085 
08:50	23.5	23.5	23.5	62	12.4	0	4	315	0.00	30.085 
08:55	23.6	23.6	23.6	62	12.5	1	4	315	0.00	30.085 
09:00	23.6	23.6	23.6	61	12.2	1	6	315	0.00	30.092 
09:05	23.6	23.6	23.6	61	12.2	1	4	292	0.00	30.092 
09:10	23.8	23.8	23.8	61	12.3	2	4	315	0.00	30.092 
09:15	23.9	23.9	23.9	61	12.4	1	3	292	0.00	30.093 
09:20	23.9	23.9	23.9	61	12.4	1	5	292	0.00	30.093 
09:25	24.1	24.1	24.1	61	12.6	1	5	338	0.00	30.093 
09:30	24.2	24.2	24.2	61	12.7	1	4	338	0.00	30.092 
09:35	24.4	24.4	24.4	60	12.5	1	3	292	0.00	30.092 
09:40	24.5	24.5	24.5	59	12.3	2	4	292	0.00	30.092 
09:45	24.5	24.5	24.5	59	12.3	1	4	315	0.00	30.094 
09:50	24.7	24.7	24.7	59	12.4	2	6	292	0.00	30.094 
09:55	24.7	24.7	24.7	59	12.4	1	4	292	0.00	30.094 
10:00	24.8	24.8	24.8	59	12.5	1	5	292	0.00	30.092 
10:05	25.0	25.0	25.0	59	12.7	1	4	292	0.00	30.092 
10:10	25.3	25.3	25.3	58	12.6	1	3	292	0.00	30.092 
10:15	25.4	25.4	25.4	57	12.3	2	4	315	0.00	30.090 
10:20	25.4	25.4	25.4	56	11.9	2	4	292	0.00	30.090 
10:25	25.6	25.6	25.6	56	12.1	1	5	292	0.00	30.090 
10:30	25.6	25.6	25.6	56	12.1	2	4	292	0.00	30.089 
10:35	25.7	25.7	25.7	56	12.2	2	5	292	0.00	30.089 
10:40	25.8	25.8	25.8	55	11.9	2	5	270	0.00	30.089 
10:45	26.1	26.1	26.1	54	11.8	1	4	0	0.00	30.084 
10:50	26.4	26.4	26.4	52	11.2	2	5	338	0.00	30.084 
10:55	26.4	26.4	26.4	52	11.2	1	4	315	0.00	30.084 
11:00	26.6	26.6	26.6	50	10.5	2	6	315	0.00	30.078 
11:05	26.9	26.9	26.9	50	10.8	2	6	338	0.00	30.078 
11:10	27.2	27.2	27.2	50	11.1	1	3	0	0.00	30.078 
11:15	27.6	27.6	27.6	51	11.9	1	4	0	0.00	30.075 
11:20	27.8	27.8	27.8	50	11.6	2	7	315	0.00	30.075 
11:25	27.9	27.9	27.9	49	11.2	3	7	292	0.00	30.075 
11:30	28.1	28.1	28.1	48	11.0	2	5	270	0.00	30.068 
11:35	27.9	27.9	27.9	48	10.8	3	9	315	0.00	30.068 
11:40	28.1	28.1	28.1	50	11.9	2	7	338	0.00	30.068 
11:45	28.2	28.2	28.2	49	11.5	3	6	338	0.00	30.063 
11:50	28.2	28.2	28.2	49	11.5	2	6	270	0.00	30.063 
11:55	28.5	28.5	28.5	49	11.8	2	6	338	0.00	30.063 
12:00	28.4	28.4	28.4	48	11.2	3	7	292	0.00	30.054 
12:05	28.2	28.2	28.2	48	11.1	3	7	292	0.00	30.054 
12:10	28.2	28.2	28.2	48	11.1	3	9	338	0.00	30.054 
12:15	28.5	28.5	28.5	48	11.3	3	7	338	0.00	30.050 
12:20	28.7	24.3	28.7	46	10.6	4	11	292	0.00	30.050 
12:25	28.8	28.8	28.8	48	11.6	3	8	292	0.00	30.050 
12:30	28.7	28.7	28.7	48	11.5	3	10	292	0.00	30.052 
12:35	28.5	28.5	28.5	49	11.8	2	5	338	0.00	30.052 
12:40	28.8	28.8	28.8	49	12.1	3	9	338	0.00	30.052 
12:45	29.0	29.0	29.0	48	11.8	3	7	315	0.00	30.049 
12:50	29.0	29.0	29.0	49	12.3	3	6	292	0.00	30.049 
12:55	29.0	29.0	29.0	49	12.3	3	6	292	0.00	30.049 
13:00	28.7	28.7	28.7	48	11.5	3	10	292	0.00	30.050 
13:05	28.5	28.5	28.5	49	11.8	3	6	292	0.00	30.050 
13:10	28.7	28.7	28.7	51	12.9	2	6	292	0.00	30.050 
13:15	29.0	29.0	29.0	53	14.0	2	5	270	0.00	30.048 
13:20	29.1	29.1	29.1	52	13.7	3	6	270	0.00	30.048 
13:25	28.8	28.8	28.8	52	13.4	3	7	315	0.00	30.048 
13:30	28.8	28.8	28.8	54	14.3	3	6	292	0.00	30.048 
13:35	29.0	24.6	29.0	54	14.5	4	7	292	0.00	30.048 
13:40	29.1	29.1	29.1	55	15.0	3	7	270	0.00	30.048 
13:45	29.3	29.3	29.3	54	14.7	3	9	270	0.00	30.052 
13:50	29.4	29.4	29.4	53	14.4	2	6	270	0.00	30.052 
13:55	29.4	29.4	29.4	54	14.8	3	6	270	0.00	30.052 
14:00	29.1	29.1	29.1	55	15.0	3	7	270	0.00	30.054 
14:05	28.7	28.7	28.7	57	15.4	3	5	270	0.00	30.054 
14:10	29.1	29.1	29.1	58	16.2	3	5	315	0.00	30.054 
14:15	28.8	24.4	28.8	57	15.5	4	6	315	0.00	30.064 
14:20	28.5	28.5	28.5	58	15.6	3	7	270	0.00	30.064 
14:25	28.5	28.5	28.5	59	16.0	3	5	315	0.00	30.064 
14:30	28.2	28.2	28.2	59	15.7	3	6	292	0.00	30.066 
14:35	28.7	28.7	28.7	60	16.6	3	6	270	0.00	30.066 
14:40	28.7	28.7	28.7	59	16.2	3	9	270	0.00	30.066 
14:45	28.8	28.8	28.8	59	16.3	2	6	270	0.00	30.068 
14:50	29.1	29.1	29.1	59	16.6	2	6	270	0.00	30.068 
14:55	29.0	29.0	29.0	59	16.5	3	9	270	0.00	30.068 
15:00	29.1	29.1	29.1	59	16.6	2	4	270	0.00	30.074 
15:05	29.4	29.4	29.4	58	16.5	2	5	315	0.00	30.074 
15:10	29.4	29.4	29.4	59	16.9	2	5	270	0.00	30.074 
15:15	29.5	29.5	29.5	58	16.6	2	5	270	0.00	30.080 
15:20	29.7	29.7	29.7	57	16.4	2	7	270	0.00	30.080 
15:25	29.5	29.5	29.5	57	16.2	2	5	338	0.00	30.080 
15:30	29.5	29.5	29.5	57	16.2	2	5	270	0.00	30.081 
15:35	29.4	29.4	29.4	57	16.1	3	5	270	0.00	30.081 
15:40	29.4	29.4	29.4	57	16.1	2	5	248	0.00	30.081 
15:45	29.3	29.3	29.3	58	16.4	3	5	292	0.00	30.095 
15:50	29.3	29.3	29.3	58	16.4	2	4	270	0.00	30.095 
15:55	29.3	29.3	29.3	58	16.4	3	5	270	0.00	30.095 
16:00	29.3	29.3	29.3	58	16.4	2	6	270	0.00	30.096 
16:05	29.1	29.1	29.1	58	16.2	2	4	270	0.00	30.096 
16:10	29.0	29.0	29.0	58	16.1	1	3	270	0.00	30.096 
16:15	28.7	28.7	28.7	59	16.2	2	5	270	0.00	30.096 
16:20	28.5	28.5	28.5	60	16.4	1	5	270	0.00	30.096 
16:25	28.4	28.4	28.4	60	16.3	2	4	270	0.00	30.096 
16:30	28.2	28.2	28.2	60	16.1	2	4	248	0.00	30.108 
16:35	28.1	28.1	28.1	60	16.0	2	4	270	0.00	30.108 
16:40	28.1	28.1	28.1	60	16.0	2	4	292	0.00	30.108 
16:45	27.9	27.9	27.9	61	16.2	1	4	270	0.00	30.114 
16:50	27.9	27.9	27.9	61	16.2	2	4	270	0.00	30.114 
16:55	27.9	27.9	27.9	61	16.2	1	2	270	0.00	30.114 
17:00	27.9	27.9	27.9	61	16.2	2	4	270	0.00	30.125 
17:05	27.8	27.8	27.8	61	16.1	2	5	270	0.00	30.125 
17:10	27.6	27.6	27.6	63	16.7	1	3	270	0.00	30.125 
17:15	27.5	27.5	27.5	64	16.9	2	5	270	0.00	30.130 
17:20	27.3	27.3	27.3	65	17.1	1	2	270	0.00	30.130 
17:25	27.3	27.3	27.3	66	17.5	1	4	270	0.00	30.130 
17:30	27.2	27.2	27.2	66	17.4	2	4	270	0.00	30.140 
17:35	27.2	27.2	27.2	67	17.7	1	3	270	0.00	30.140 
17:40	27.0	27.0	27.0	68	17.9	2	4	270	0.00	30.140 
17:45	27.0	27.0	27.0	69	18.2	2	5	270	0.00	30.145 
17:50	27.0	27.0	27.0	69	18.2	2	4	270	0.00	30.145 
17:55	26.9	26.9	26.9	70	18.4	2	4	270	0.00	30.145 
18:00	26.9	26.9	26.9	70	18.4	2	4	270	0.00	30.152 
18:05	26.9	26.9	26.9	71	18.8	1	5	270	0.00	30.152 
18:10	26.9	26.9	26.9	71	18.8	2	3	270	0.00	30.152 
18:15	26.9	26.9	26.9	72	19.1	2	4	270	0.00	30.155 
18:20	26.7	26.7	26.7	73	19.2	1	4	248	0.00	30.155 
18:25	26.7	26.7	26.7	73	19.2	1	3	248	0.00	30.155 
18:30	26.7	26.7	26.7	74	19.5	1	3	248	0.00	30.161 
18:35	26.6	26.6	26.6	74	19.5	1	2	248	0.00	30.161 
18:40	26.6	26.6	26.6	75	19.8	1	3	248	0.00	30.161 
18:45	26.6	26.6	26.6	75	19.8	1	3	248	0.00	30.164 
18:50	26.6	26.6	26.6	76	20.1	1	3	248	0.00	30.164 
18:55	26.6	26.6	26.6	76	20.1	1	3	248	0.00	30.164 
19:00	26.6	26.6	26.6	77	20.4	1	5	248	0.00	30.174 
19:05	26.4	26.4	26.4	77	20.2	1	4	315	0.00	30.174 
19:10	26.4	26.4	26.4	78	20.5	1	3	315	0.00	30.174 
19:15	26.4	26.4	26.4	78	20.5	0	2	315	0.00	30.179 
19:20	26.4	26.4	26.4	79	20.8	1	3	315	0.00	30.179 
19:25	26.4	26.4	26.4	80	21.1	1	4	315	0.00	30.179 
19:30	26.4	26.4	26.4	80	21.1	1	2	315	0.00	30.180 
19:35	26.4	26.4	26.4	80	21.1	1	3	315	0.00	30.180 
19:40	26.3	26.3	26.3	81	21.3	1	3	292	0.00	30.180 
19:45	26.3	26.3	26.3	81	21.3	1	3	292	0.00	30.187 
19:50	26.3	26.3	26.3	81	21.3	1	3	292	0.00	30.187 
19:55	26.4	26.4	26.4	81	21.4	0	2	292	0.00	30.187 
20:00	26.4	26.4	26.4	81	21.4	1	2	270	0.00	30.190 
20:05	26.4	26.4	26.4	82	21.7	1	3	270	0.00	30.190 
20:10	26.4	26.4	26.4	82	21.7	0	2	270	0.00	30.190 
20:15	26.4	26.4	26.4	82	21.7	1	3	270	0.00	30.193 
20:20	26.4	26.4	26.4	82	21.7	1	3	270	0.00	30.193 
20:25	26.4	26.4	26.4	82	21.7	1	4	270	0.00	30.193 
20:30	26.4	26.4	26.4	82	21.7	1	3	270	0.00	30.194 
20:35	26.3	26.3	26.3	81	21.3	1	3	292	0.00	30.194 
20:40	26.3	26.3	26.3	81	21.3	1	3	292	0.00	30.194 
20:45	26.3	26.3	26.3	81	21.3	1	2	292	0.00	30.196 
20:50	26.1	26.1	26.1	81	21.1	0	4	292	0.00	30.196 
20:55	26.1	26.1	26.1	81	21.1	0	1	292	0.00	30.196 
21:00	26.0	26.0	26.0	81	21.0	1	3	292	0.00	30.196 
21:05	26.0	26.0	26.0	81	21.0	0	2	292	0.00	30.196 
21:10	25.8	25.8	25.8	81	20.8	0	1	292	0.00	30.196 
21:15	25.8	25.8	25.8	81	20.8	0	2	292	0.00	30.199 
21:20	25.7	25.7	25.7	80	20.4	0	2	292	0.00	30.199 
21:25	25.7	25.7	25.7	80	20.4	0	1	292	0.00	30.199 
21:30	25.7	25.7	25.7	80	20.4	0	2	292	0.00	30.203 
21:35	25.6	25.6	25.6	80	20.3	0	1	292	0.00	30.203 
21:40	25.6	25.6	25.6	80	20.3	0	3	292	0.00	30.203 
21:45	25.6	25.6	25.6	80	20.3	1	3	292	0.00	30.210 
21:50	25.6	25.6	25.6	80	20.3	1	3	292	0.00	30.210 
21:55	25.6	25.6	25.6	79	20.0	1	2	292	0.00	30.210 
22:00	25.4	25.4	25.4	79	19.8	1	3	292	0.00	30.220 
22:05	25.4	25.4	25.4	79	19.8	0	2	292	0.00	30.220 
22:10	25.4	25.4	25.4	79	19.8	1	3	292	0.00	30.220 
22:15	25.4	25.4	25.4	79	19.8	0	2	292	0.00	30.225 
22:20	25.4	25.4	25.4	80	20.1	0	2	292	0.00	30.225 
22:25	25.4	25.4	25.4	80	20.1	0	2	292	0.00	30.225 
22:30	25.3	25.3	25.3	80	20.0	0	2	292	0.00	30.234 
22:35	25.3	25.3	25.3	80	20.0	1	3	292	0.00	30.234 
22:40	25.3	25.3	25.3	80	20.0	0	2	292	0.00	30.234 
22:45	25.3	25.3	25.3	80	20.0	0	2	292	0.00	30.235 
22:50	25.1	25.1	25.1	80	19.8	0	1	292	0.00	30.235 
22:55	25.1	25.1	25.1	80	19.8	0	2	292	0.00	30.235 
23:00	25.1	25.1	25.1	80	19.8	0	1	292	0.00	30.240 
23:05	25.1	25.1	25.1	80	19.8	0	1	292	0.00	30.240 
23:10	25.1	25.1	25.1	79	19.5	0	1	292	0.00	30.240 
23:15	25.1	25.1	25.1	79	19.5	0	2	292	0.00	30.246 
23:20	25.1	25.1	25.1	79	19.5	0	2	292	0.00	30.246 
23:25	25.1	25.1	25.1	79	19.5	0	1	292	0.00	30.246 
23:30	25.1	25.1	25.1	79	19.5	0	2	292	0.00	30.252 
23:35	25.1	25.1	25.1	79	19.5	0	1	292	0.00	30.252 
23:40	25.0	25.0	25.0	78	19.1	0	2	292	0.00	30.252 
23:45	25.0	25.0	25.0	78	19.1	0	1	292	0.00	30.254 
23:50	25.0	25.0	25.0	78	19.1	0	2	292	0.00	30.254 
23:55	25.0	25.0	25.0	78	19.1	0	1	292	0.00	30.254 

CoCoRaHS
IN-AL-39
A2 Web Hosting
Creative Commons License
GoDaddy
search engine by freefind advanced

loaded 2018-11-19 11:12:42 • last modified 2010-11-18 10:43:29
Privacy PolicyDisclaimer
• wx.awcolley.com is powered by PmWiki v.2002016 •
• all content (unless otherwise noted) © 2018 A W Colley